Time;durP1;ratioP1;P1;durP2;ratioP2;P2;SDS_P1;SDS_P2;PMS_P1;PMS_P2;Temp;Humidity;BMP_temperature;BMP_pressure;BME280_temperature;BME280_humidity;BME280_pressure;Samples;Min_cycle;Max_cycle;Signal;HPM_P1;HPM_P2
2023/01/11 00:00:21;;;;;;;2.72;1.58;;;;;;;1.00;100.00;96126.72;1029528;28;20029;-68
2023/01/11 00:00:54;;;;;;;1.75;1.00;;;;;;;0.95;100.00;96116.19;1030785;28;20030;-72
2023/01/11 00:01:28;;;;;;;1.30;1.13;;;;;;;0.99;100.00;96126.94;1030816;28;20026;-69
2023/01/11 00:01:58;;;;;;;3.47;1.40;;;;;;;1.01;100.00;96120.59;1028570;28;20254;-69
2023/01/11 00:02:29;;;;;;;2.95;1.23;;;;;;;1.05;100.00;96128.75;1022219;28;20271;-69
2023/01/11 00:03:01;;;;;;;1.88;1.00;;;;;;;1.05;100.00;96115.81;1023777;28;20027;-72
2023/01/11 00:03:31;;;;;;;3.65;1.45;;;;;;;1.03;100.00;96113.41;1026726;28;20019;-71
2023/01/11 00:04:02;;;;;;;4.10;1.35;;;;;;;1.09;100.00;96122.19;1023378;28;20793;-72
2023/01/11 00:04:32;;;;;;;2.15;1.05;;;;;;;1.10;100.00;96113.44;1026583;28;20057;-71
2023/01/11 00:05:03;;;;;;;1.30;1.00;;;;;;;1.09;100.00;96117.03;1027029;28;20015;-69
2023/01/11 00:05:38;;;;;;;3.38;1.60;;;;;;;1.06;100.00;96113.03;1026755;28;20122;-71
2023/01/11 00:06:09;;;;;;;2.90;1.10;;;;;;;1.14;100.00;96105.13;1031192;28;20026;-72
2023/01/11 00:06:40;;;;;;;4.22;1.10;;;;;;;1.17;100.00;96115.06;1030542;28;20357;-75
2023/01/11 00:07:10;;;;;;;2.15;1.13;;;;;;;1.14;100.00;96110.28;1031439;28;20261;-68
2023/01/11 00:07:41;;;;;;;2.85;1.10;;;;;;;1.15;100.00;96111.88;1026418;28;20011;-71
2023/01/11 00:08:11;;;;;;;1.67;1.00;;;;;;;1.18;100.00;96111.50;1022005;28;20046;-68
2023/01/11 00:08:42;;;;;;;3.55;1.08;;;;;;;1.15;100.00;96106.72;1022436;28;20030;-72
2023/01/11 00:09:12;;;;;;;2.53;1.30;;;;;;;1.15;100.00;96106.72;1025302;28;20552;-69
2023/01/11 00:09:46;;;;;;;1.77;0.90;;;;;;;1.16;100.00;96110.88;1028750;28;20035;-70
2023/01/11 00:10:17;;;;;;;2.00;1.15;;;;;;;1.17;100.00;96111.66;1039352;28;20033;-70
2023/01/11 00:10:48;;;;;;;2.88;1.58;;;;;;;1.12;100.00;96101.94;1038370;28;20366;-69
2023/01/11 00:11:18;;;;;;;3.03;1.48;;;;;;;1.20;100.00;96113.06;1032211;28;20269;-70
2023/01/11 00:11:49;;;;;;;2.33;1.23;;;;;;;1.21;100.00;96114.66;1034535;28;20038;-71
2023/01/11 00:12:19;;;;;;;2.65;1.40;;;;;;;1.20;100.00;96107.91;1034717;28;20033;-70
2023/01/11 00:12:49;;;;;;;2.40;1.30;;;;;;;1.26;100.00;96113.09;1031211;28;20463;-71
2023/01/11 00:13:20;;;;;;;5.07;0.88;;;;;;;1.26;100.00;96109.72;1037734;28;20029;-70
2023/01/11 00:13:50;;;;;;;1.75;0.90;;;;;;;1.27;100.00;96109.50;1035740;28;20517;-70
2023/01/11 00:14:22;;;;;;;1.85;1.00;;;;;;;1.29;100.00;96109.34;1030756;28;20030;-68
2023/01/11 00:14:52;;;;;;;2.08;0.80;;;;;;;1.30;100.00;96109.13;1021092;28;20040;-71
2023/01/11 00:15:22;;;;;;;3.47;1.05;;;;;;;1.24;100.00;96099.59;1026937;28;20270;-71
2023/01/11 00:15:53;;;;;;;2.92;1.10;;;;;;;1.24;100.00;96101.34;1021404;29;20122;-69
2023/01/11 00:16:23;;;;;;;1.63;0.93;;;;;;;1.28;100.00;96107.75;1019504;28;20730;-69
2023/01/11 00:16:54;;;;;;;1.40;1.13;;;;;;;1.27;100.00;96106.94;1030222;28;20042;-71
2023/01/11 00:17:25;;;;;;;1.32;0.80;;;;;;;1.29;100.00;96110.13;1026685;28;20508;-71
2023/01/11 00:17:56;;;;;;;1.48;1.05;;;;;;;1.31;100.00;96112.53;1023238;28;20027;-70
2023/01/11 00:18:26;;;;;;;2.53;1.15;;;;;;;1.36;100.00;96107.56;1030240;28;20061;-71
2023/01/11 00:18:57;;;;;;;6.20;1.20;;;;;;;1.37;100.00;96109.16;1030819;28;20277;-69
2023/01/11 00:19:27;;;;;;;3.08;1.00;;;;;;;1.29;100.00;96101.59;1033223;28;20029;-68
2023/01/11 00:19:58;;;;;;;2.47;1.00;;;;;;;1.34;100.00;96106.94;1036910;28;20212;-70
2023/01/11 00:20:28;;;;;;;1.73;1.10;;;;;;;1.31;100.00;96104.78;1027525;28;20034;-73
2023/01/11 00:21:04;;;;;;;2.25;0.95;;;;;;;1.31;100.00;96115.91;1022467;29;20042;-70
2023/01/11 00:21:34;;;;;;;4.25;0.80;;;;;;;1.30;100.00;96108.34;1025260;28;20853;-72
2023/01/11 00:22:05;;;;;;;3.92;1.10;;;;;;;1.31;100.00;96104.78;1032447;28;20344;-72
2023/01/11 00:22:35;;;;;;;1.35;0.88;;;;;;;1.32;100.00;96101.19;1038802;28;20017;-70
2023/01/11 00:23:06;;;;;;;2.35;1.08;;;;;;;1.35;100.00;96111.16;1026835;28;20045;-69
2023/01/11 00:23:36;;;;;;;2.45;1.10;;;;;;;1.29;100.00;96104.16;1026631;28;20034;-71
2023/01/11 00:24:07;;;;;;;2.28;0.98;;;;;;;1.18;100.00;96080.47;1026437;28;20521;-70
2023/01/11 00:24:37;;;;;;;1.77;1.20;;;;;;;1.34;100.00;96099.19;1026652;28;20058;-70
2023/01/11 00:25:08;;;;;;;2.92;1.15;;;;;;;1.35;100.00;96105.97;1034176;28;20056;-68
2023/01/11 00:25:39;;;;;;;2.00;1.00;;;;;;;1.38;100.00;96097.84;1022018;28;20736;-71
2023/01/11 00:26:10;;;;;;;2.25;0.98;;;;;;;1.38;100.00;96096.03;1018848;29;20031;-69
2023/01/11 00:26:41;;;;;;;5.65;1.00;;;;;;;1.43;100.00;96100.63;1021518;28;20108;-71
2023/01/11 00:27:11;;;;;;;4.32;1.08;;;;;;;1.41;100.00;96105.19;1030936;28;20266;-69
2023/01/11 00:27:42;;;;;;;1.83;0.80;;;;;;;1.40;100.00;96103.59;1030823;28;20026;-67
2023/01/11 00:28:12;;;;;;;1.38;0.73;;;;;;;1.40;100.00;96109.56;1030700;28;20026;-71
2023/01/11 00:28:43;;;;;;;1.20;1.10;;;;;;;1.41;100.00;96105.19;1038968;28;20029;-72
2023/01/11 00:29:13;;;;;;;2.08;1.00;;;;;;;1.39;100.00;96107.19;1030313;28;20094;-73
2023/01/11 00:29:44;;;;;;;2.33;1.13;;;;;;;1.35;100.00;96096.44;1023937;28;20377;-69
2023/01/11 00:30:15;;;;;;;2.80;0.90;;;;;;;1.42;100.00;96106.78;1023932;28;20031;-69
2023/01/11 00:30:47;;;;;;;4.10;0.98;;;;;;;1.46;100.00;96100.22;1030432;28;20023;-68
2023/01/11 00:31:18;;;;;;;3.38;1.08;;;;;;;1.46;100.00;96102.03;1029269;28;20366;-68
2023/01/11 00:31:48;;;;;;;2.58;1.35;;;;;;;1.46;100.00;96104.59;1028384;28;21101;-71
2023/01/11 00:32:19;;;;;;;1.42;0.73;;;;;;;1.40;100.00;96093.25;1034774;28;20025;-71
2023/01/11 00:32:54;;;;;;;1.33;0.85;;;;;;;1.38;100.00;96095.25;1034983;28;20069;-70
2023/01/11 00:33:25;;;;;;;4.35;0.88;;;;;;;1.45;100.00;96101.22;1027055;28;20034;-73
2023/01/11 00:33:55;;;;;;;1.70;0.90;;;;;;;1.45;100.00;96101.22;1020844;29;20283;-68
2023/01/11 00:34:26;;;;;;;2.05;1.00;;;;;;;1.46;100.00;96100.22;1018987;29;20038;-68
2023/01/11 00:34:56;;;;;;;1.83;0.90;;;;;;;1.48;100.00;96105.22;1018419;29;20031;-69
2023/01/11 00:35:29;;;;;;;2.88;1.25;;;;;;;1.48;100.00;96098.25;1021629;28;20049;-71
2023/01/11 00:35:59;;;;;;;1.20;0.80;;;;;;;1.45;100.00;96090.88;1018513;29;20541;-70
2023/01/11 00:36:29;;;;;;;3.75;1.00;;;;;;;1.50;100.00;96098.84;1026558;28;20274;-71
2023/01/11 00:37:00;;;;;;;0.88;0.80;;;;;;;1.48;100.00;96087.91;1024773;28;20042;-69
2023/01/11 00:37:31;;;;;;;2.10;0.68;;;;;;;1.55;100.00;96095.69;1026438;28;20134;-69
2023/01/11 00:38:01;;;;;;;3.17;0.90;;;;;;;1.54;100.00;96102.66;1030552;28;20045;-69
2023/01/11 00:38:45;;;;;;;3.00;1.23;;;;;;;1.55;100.00;96095.69;1034536;28;20688;-68
2023/01/11 00:39:16;;;;;;;0.98;0.80;;;;;;;1.53;100.00;96098.44;1036487;28;20033;-69
2023/01/11 00:39:46;;;;;;;1.50;1.05;;;;;;;1.51;100.00;96094.44;1034750;28;20277;-70
2023/01/11 00:40:17;;;;;;;2.22;0.85;;;;;;;1.53;100.00;96098.44;1030247;28;20033;-72
2023/01/11 00:40:47;;;;;;;2.38;0.70;;;;;;;1.50;100.00;96093.66;1026403;28;20031;-74
2023/01/11 00:47:56;;;;;;;1.67;0.80;;;;;;;1.44;100.00;96094.44;1042453;28;20145;-69
2023/01/11 00:48:27;;;;;;;3.05;0.98;;;;;;;1.49;100.00;96105.00;1038332;28;20295;-69
2023/01/11 00:48:57;;;;;;;1.98;0.93;;;;;;;1.47;100.00;96099.22;1031579;28;20285;-72
2023/01/11 00:49:28;;;;;;;1.40;0.93;;;;;;;1.43;100.00;96098.03;1028883;28;20120;-73
2023/01/11 00:49:58;;;;;;;0.90;0.70;;;;;;;1.48;100.00;96103.41;1021921;28;20034;-67
2023/01/11 00:50:31;;;;;;;2.70;1.08;;;;;;;1.49;100.00;96101.63;1022443;29;20038;-70
2023/01/11 00:51:01;;;;;;;1.08;0.60;;;;;;;1.45;100.00;96100.44;1022259;28;20027;-72
2023/01/11 00:51:32;;;;;;;3.05;0.70;;;;;;;1.43;100.00;96092.84;1022376;29;20326;-73
2023/01/11 00:52:07;;;;;;;1.83;1.08;;;;;;;1.47;100.00;96104.41;1022143;28;20042;-71
2023/01/11 00:52:37;;;;;;;2.45;0.68;;;;;;;1.47;100.00;96106.97;1025949;28;20023;-70
2023/01/11 00:53:08;;;;;;;2.15;0.80;;;;;;;1.47;100.00;96104.41;1023318;28;20270;-68
2023/01/11 00:53:38;;;;;;;2.92;1.00;;;;;;;1.47;100.00;96104.41;1026945;28;20015;-72
2023/01/11 00:54:09;;;;;;;1.10;0.80;;;;;;;1.41;100.00;96100.03;1030500;28;20022;-70
2023/01/11 00:54:40;;;;;;;1.70;1.02;;;;;;;1.40;100.00;96101.78;1026673;28;20019;-71
2023/01/11 00:55:11;;;;;;;1.73;0.90;;;;;;;1.48;100.00;96108.59;1026019;28;20485;-71
2023/01/11 00:55:41;;;;;;;2.95;0.77;;;;;;;1.49;100.00;96112.75;1021244;28;20333;-68
2023/01/11 00:56:12;;;;;;;2.63;1.00;;;;;;;1.49;100.00;96107.59;1022797;28;20499;-74
2023/01/11 00:56:42;;;;;;;2.05;0.93;;;;;;;1.50;100.00;96108.38;1026305;28;20069;-69
2023/01/11 00:57:13;;;;;;;2.63;0.85;;;;;;;1.50;100.00;96108.38;1026935;28;20071;-71
2023/01/11 00:57:43;;;;;;;1.95;0.80;;;;;;;1.50;100.00;96104.00;1022142;28;20019;-69
2023/01/11 00:58:14;;;;;;;1.50;0.82;;;;;;;1.51;100.00;96107.38;1026033;28;20035;-73
2023/01/11 00:58:45;;;;;;;1.83;1.02;;;;;;;1.55;100.00;96114.56;1026492;28;20073;-71
2023/01/11 00:59:15;;;;;;;1.67;0.90;;;;;;;1.50;100.00;96100.63;1026098;28;20325;-71
2023/01/11 00:59:46;;;;;;;1.23;0.85;;;;;;;1.53;100.00;96106.19;1022414;28;20042;-71
2023/01/11 01:00:17;;;;;;;1.83;1.13;;;;;;;1.50;100.00;96098.84;1026401;28;20026;-70
2023/01/11 01:00:48;;;;;;;0.70;0.70;;;;;;;1.54;100.00;96105.22;1020176;28;20470;-70
2023/01/11 01:01:18;;;;;;;2.03;0.80;;;;;;;1.55;100.00;96106.03;1026657;28;20266;-70
2023/01/11 01:01:49;;;;;;;2.17;0.70;;;;;;;1.47;100.00;96088.88;1026368;28;20531;-70
2023/01/11 01:02:21;;;;;;;1.17;0.80;;;;;;;1.57;100.00;96109.19;1022938;28;20031;-73
2023/01/11 01:02:51;;;;;;;1.42;1.00;;;;;;;1.48;100.00;96087.91;1034556;28;20018;-69
2023/01/11 01:03:22;;;;;;;1.13;0.80;;;;;;;1.58;100.00;96103.03;1030692;28;20254;-70
2023/01/11 01:03:52;;;;;;;1.27;0.80;;;;;;;1.58;100.00;96101.25;1026225;28;20027;-67
2023/01/11 01:04:23;;;;;;;1.67;0.85;;;;;;;1.56;100.00;96098.06;1023076;28;20015;-68
2023/01/11 01:04:54;;;;;;;1.52;0.90;;;;;;;1.59;100.00;96102.84;1026096;28;20042;-69
2023/01/11 01:05:24;;;;;;;2.50;0.93;;;;;;;1.59;100.00;96100.25;1022967;28;20544;-70
2023/01/11 01:05:54;;;;;;;2.53;0.90;;;;;;;1.58;100.00;96101.25;1029424;28;20519;-71
2023/01/11 01:06:25;;;;;;;1.38;1.20;;;;;;;1.57;100.00;96107.41;1026547;28;20078;-71
2023/01/11 01:06:56;;;;;;;1.58;1.20;;;;;;;1.59;100.00;96100.25;1022589;29;20102;-71
2023/01/11 01:07:26;;;;;;;1.35;0.90;;;;;;;1.59;100.00;96105.41;1020041;28;20023;-69
2023/01/11 01:07:57;;;;;;;1.75;0.80;;;;;;;1.60;100.00;96093.28;1026096;28;20447;-68
2023/01/11 01:08:27;;;;;;;2.13;0.98;;;;;;;1.61;100.00;96094.88;1026663;28;20019;-69
2023/01/11 01:08:58;;;;;;;1.75;0.95;;;;;;;1.56;100.00;96086.91;1030139;28;20018;-69
2023/01/11 01:09:28;;;;;;;1.67;0.80;;;;;;;1.65;100.00;96093.50;1029718;28;20092;-72
2023/01/11 01:09:59;;;;;;;1.88;0.80;;;;;;;1.57;100.00;96076.38;1029998;28;20018;-69
2023/01/11 01:10:29;;;;;;;9.18;1.52;;;;;;;1.62;100.00;96089.50;1026184;28;20085;-70
2023/01/11 01:11:00;;;;;;;1.63;0.60;;;;;;;1.58;100.00;96085.72;1026159;28;20027;-69
2023/01/11 01:11:30;;;;;;;2.13;0.80;;;;;;;1.58;100.00;96082.34;1030475;28;20026;-70
2023/01/11 01:12:01;;;;;;;1.05;0.60;;;;;;;1.63;100.00;96091.09;1030014;28;20495;-69
2023/01/11 01:14:29;;;;;;;1.52;0.95;;;;;;;1.59;100.00;96079.56;1024691;28;20129;-68
2023/01/11 01:15:00;;;;;;;0.60;0.60;;;;;;;1.64;100.00;96084.94;1033861;28;20753;-71
2023/01/11 01:15:31;;;;;;;1.30;0.93;;;;;;;1.59;100.00;96076.97;1029771;28;20265;-71
2023/01/11 01:16:01;;;;;;;1.30;0.80;;;;;;;1.68;100.00;96087.13;1024512;28;20058;-69
2023/01/11 01:16:32;;;;;;;2.70;1.10;;;;;;;1.68;100.00;96092.28;1025042;28;20274;-73
2023/01/11 01:17:06;;;;;;;2.45;1.00;;;;;;;1.67;100.00;96085.53;1026347;28;20030;-73
2023/01/11 01:17:36;;;;;;;4.85;1.05;;;;;;;1.68;100.00;96084.53;1031230;28;20026;-70
2023/01/11 01:18:07;;;;;;;1.40;0.70;;;;;;;1.70;100.00;96085.13;1035120;28;20347;-69
2023/01/11 01:18:37;;;;;;;1.65;1.05;;;;;;;1.69;100.00;96084.34;1029969;28;20026;-69
2023/01/11 01:19:08;;;;;;;1.83;0.70;;;;;;;1.63;100.00;96078.16;1022181;29;20742;-70
2023/01/11 01:19:38;;;;;;;1.48;0.80;;;;;;;1.69;100.00;96081.75;1022162;28;20031;-72
2023/01/11 01:20:09;;;;;;;0.93;0.70;;;;;;;1.72;100.00;96088.34;1026354;28;20074;-70
2023/01/11 01:20:40;;;;;;;1.77;0.75;;;;;;;1.68;100.00;96076.78;1030532;28;20160;-69
2023/01/11 01:21:10;;;;;;;1.80;0.90;;;;;;;1.70;100.00;96082.56;1030287;28;20022;-68
2023/01/11 01:21:41;;;;;;;4.10;0.90;;;;;;;1.72;100.00;96083.16;1026389;28;20019;-70
2023/01/11 01:22:11;;;;;;;1.35;0.80;;;;;;;1.74;100.00;96081.16;1022534;29;20049;-68
2023/01/11 01:22:42;;;;;;;1.42;0.75;;;;;;;1.72;100.00;96080.56;1022097;28;20056;-69
2023/01/11 01:23:12;;;;;;;1.15;0.70;;;;;;;1.73;100.00;96077.00;1026519;28;20034;-71
2023/01/11 01:23:42;;;;;;;1.40;0.98;;;;;;;1.74;100.00;96075.97;1026412;28;20015;-72
2023/01/11 01:24:13;;;;;;;1.48;0.80;;;;;;;1.74;100.00;96083.75;1030308;28;20022;-69
2023/01/11 01:24:43;;;;;;;1.10;0.60;;;;;;;1.75;100.00;96080.19;1030277;28;20571;-71
2023/01/11 01:25:14;;;;;;;1.30;0.77;;;;;;;1.70;100.00;96064.44;1026188;28;20041;-69
2023/01/11 01:25:45;;;;;;;3.92;1.00;;;;;;;1.76;100.00;96082.56;1025307;28;20025;-75
2023/01/11 01:26:15;;;;;;;2.72;0.82;;;;;;;1.70;100.00;96067.81;1030304;28;20732;-68
2023/01/11 01:26:46;;;;;;;2.00;1.02;;;;;;;1.78;100.00;96084.97;1026370;28;20031;-71
2023/01/11 01:27:18;;;;;;;2.33;0.70;;;;;;;1.79;100.00;96076.19;1030257;28;20022;-71
2023/01/11 01:27:49;;;;;;;1.98;0.90;;;;;;;1.80;100.00;96076.00;1030245;28;20105;-70
2023/01/11 01:28:20;;;;;;;2.53;0.60;;;;;;;1.79;100.00;96071.03;1030938;28;20270;-71
2023/01/11 01:28:51;;;;;;;2.10;0.68;;;;;;;1.79;100.00;96071.03;1034356;28;20026;-68
2023/01/11 01:29:21;;;;;;;1.27;0.80;;;;;;;1.81;100.00;96074.19;1034448;28;20315;-70
2023/01/11 01:29:52;;;;;;;3.25;0.70;;;;;;;1.81;100.00;96069.00;1033904;28;20085;-72
2023/01/11 01:30:22;;;;;;;2.78;0.90;;;;;;;1.81;100.00;96069.84;1030838;28;20038;-70
2023/01/11 01:30:53;;;;;;;1.05;0.90;;;;;;;1.80;100.00;96063.06;1026142;28;20042;-70
2023/01/11 01:31:23;;;;;;;1.75;0.80;;;;;;;1.84;100.00;96078.97;1026505;28;20089;-68
2023/01/11 01:31:54;;;;;;;4.32;1.13;;;;;;;1.78;100.00;96061.69;1026043;28;20045;-69
2023/01/11 01:32:24;;;;;;;1.40;0.80;;;;;;;1.85;100.00;96073.63;1026225;28;20031;-69
2023/01/11 01:32:55;;;;;;;1.58;0.68;;;;;;;1.87;100.00;96068.22;1024089;28;20461;-73
2023/01/11 01:33:25;;;;;;;1.08;0.68;;;;;;;1.86;100.00;96071.81;1025415;28;20042;-70
2023/01/11 01:33:56;;;;;;;1.35;0.80;;;;;;;1.86;100.00;96072.59;1021813;28;20065;-69
2023/01/11 01:34:26;;;;;;;3.15;0.90;;;;;;;1.87;100.00;96070.81;1026562;28;20041;-71
2023/01/11 01:34:57;;;;;;;2.65;0.98;;;;;;;1.86;100.00;96066.63;1022298;28;20042;-71
2023/01/11 01:35:27;;;;;;;1.02;0.60;;;;;;;1.87;100.00;96076.00;1026089;28;20030;-73
2023/01/11 01:36:00;;;;;;;1.42;0.80;;;;;;;1.87;100.00;96073.41;1025684;28;20035;-69
2023/01/11 01:36:30;;;;;;;1.00;0.40;;;;;;;1.91;100.00;96073.78;1026056;28;20034;-70
2023/01/11 01:37:01;;;;;;;1.45;0.70;;;;;;;1.87;100.00;96066.44;1023143;28;20271;-72
2023/01/11 01:37:31;;;;;;;0.82;0.60;;;;;;;1.91;100.00;96069.41;1026198;28;20043;-70
2023/01/11 01:38:01;;;;;;;0.47;0.45;;;;;;;1.91;100.00;96064.25;1021937;29;20066;-68
2023/01/11 01:38:32;;;;;;;0.65;0.40;;;;;;;1.95;100.00;96068.03;1025403;28;20023;-70
2023/01/11 01:39:03;;;;;;;1.30;0.80;;;;;;;1.95;100.00;96062.88;1018375;28;20434;-69
2023/01/11 01:39:34;;;;;;;1.75;0.93;;;;;;;1.98;100.00;96078.00;1022675;28;20062;-68
2023/01/11 01:40:05;;;;;;;2.33;0.80;;;;;;;1.99;100.00;96076.19;1026565;28;20524;-70
2023/01/11 01:40:45;;;;;;;1.98;0.88;;;;;;;1.96;100.00;96061.84;1029866;28;20572;-70
2023/01/11 01:41:16;;;;;;;1.50;0.57;;;;;;;1.99;100.00;96069.22;1025017;28;20384;-70
2023/01/11 01:41:46;;;;;;;0.85;0.60;;;;;;;2.00;100.00;96070.81;1026108;28;20042;-69
2023/01/11 01:42:18;;;;;;;1.27;0.70;;;;;;;1.97;100.00;96062.66;1023129;28;20027;-70
2023/01/11 01:42:53;;;;;;;0.65;0.47;;;;;;;2.02;100.00;96062.88;1021983;28;20584;-69
2023/01/11 01:43:45;;;;;;;3.22;0.63;;;;;;;2.03;100.00;96062.66;1022748;28;20883;-71
2023/01/11 01:45:01;;;;;;;2.72;0.70;;;;;;;2.06;100.00;96061.47;1021868;29;20338;-72
2023/01/11 01:45:31;;;;;;;0.65;0.65;;;;;;;2.08;100.00;96064.66;1034977;28;20264;-73
2023/01/11 01:46:02;;;;;;;2.05;0.50;;;;;;;2.04;100.00;96053.09;1028290;28;20324;-72
2023/01/11 01:46:32;;;;;;;0.95;0.57;;;;;;;2.09;100.00;96067.03;1022478;29;20111;-68
2023/01/11 01:47:03;;;;;;;1.40;0.50;;;;;;;2.05;100.00;96057.28;1019164;29;20143;-69
2023/01/11 01:47:35;;;;;;;1.27;0.60;;;;;;;2.10;100.00;96060.84;1026346;28;20050;-70
2023/01/11 01:48:05;;;;;;;0.95;0.65;;;;;;;2.11;100.00;96074.56;1018676;29;20035;-71
2023/01/11 01:48:36;;;;;;;1.08;0.80;;;;;;;2.10;100.00;96066.03;1017999;29;20267;-69
2023/01/11 01:49:11;;;;;;;3.20;0.68;;;;;;;2.11;100.00;96064.22;1020575;29;20031;-69
2023/01/11 01:49:42;;;;;;;0.60;0.60;;;;;;;2.11;100.00;96061.63;1030231;28;20030;-68
2023/01/11 01:50:26;;;;;;;2.92;0.60;;;;;;;2.05;100.00;96052.91;1018185;29;20267;-70
2023/01/11 01:50:56;;;;;;;2.66;1.04;;;;;;;2.10;100.00;96060.84;1026091;28;20090;-68
2023/01/11 01:51:37;;;;;;;2.03;0.60;;;;;;;2.07;100.00;96057.88;1030353;28;20437;-70
2023/01/11 01:52:08;;;;;;;3.70;0.70;;;;;;;2.10;100.00;96058.25;1026364;28;20026;-72
2023/01/11 01:52:38;;;;;;;0.93;0.57;;;;;;;2.07;100.00;96056.06;1018087;29;20709;-68
2023/01/11 01:53:17;;;;;;;1.23;0.68;;;;;;;2.09;100.00;96056.69;1025566;28;20134;-72
2023/01/11 01:53:48;;;;;;;1.75;0.60;;;;;;;1.96;100.00;96038.56;1023045;28;20031;-67
2023/01/11 01:54:21;;;;;;;3.97;0.75;;;;;;;2.13;100.00;96051.88;1022250;29;20298;-68
2023/01/11 01:54:52;;;;;;;1.23;0.70;;;;;;;2.12;100.00;96056.28;1030266;28;20809;-76
2023/01/11 01:55:28;;;;;;;1.67;0.85;;;;;;;2.12;100.00;96056.28;1032398;28;20355;-68
2023/01/11 01:55:59;;;;;;;3.13;0.80;;;;;;;2.13;100.00;96052.69;1034025;28;20551;-70
2023/01/11 01:56:34;;;;;;;0.88;0.43;;;;;;;2.14;100.00;96048.28;1034186;28;20272;-74
2023/01/11 01:57:08;;;;;;;2.95;0.90;;;;;;;2.13;100.00;96052.69;1030380;28;20018;-71
2023/01/11 01:57:39;;;;;;;0.95;0.80;;;;;;;2.12;100.00;96040.75;1031673;28;20261;-69
2023/01/11 01:58:11;;;;;;;1.42;0.63;;;;;;;2.10;100.00;96053.06;1021976;29;20296;-70
2023/01/11 01:58:49;;;;;;;0.82;0.80;;;;;;;2.10;100.00;96052.28;1022000;29;20160;-72
2023/01/11 01:59:20;;;;;;;2.17;0.82;;;;;;;2.09;100.00;96053.28;1021974;29;20356;-69
2023/01/11 01:59:50;;;;;;;1.95;0.68;;;;;;;2.04;100.00;96040.16;1022295;29;20781;-68
2023/01/11 02:00:21;;;;;;;1.00;0.63;;;;;;;2.13;100.00;96057.84;1018235;29;20050;-69
2023/01/11 02:00:51;;;;;;;1.08;0.65;;;;;;;2.13;100.00;96052.69;1024523;28;20101;-69
2023/01/11 02:02:11;;;;;;;3.03;0.98;;;;;;;2.16;100.00;96055.88;1026278;28;20485;-70
2023/01/11 02:02:41;;;;;;;0.80;0.60;;;;;;;2.17;100.00;96049.69;1030251;28;20269;-68
2023/01/11 02:03:17;;;;;;;1.65;0.55;;;;;;;2.19;100.00;96053.69;1021881;29;20019;-73
2023/01/11 02:03:47;;;;;;;0.88;0.60;;;;;;;2.18;100.00;96043.50;1030179;28;20022;-70
2023/01/11 02:04:22;;;;;;;1.48;0.65;;;;;;;2.22;100.00;96049.91;1023284;28;20951;-71
2023/01/11 02:04:55;;;;;;;0.65;0.50;;;;;;;2.23;100.00;96052.28;1023325;28;20029;-70
2023/01/11 02:05:25;;;;;;;0.88;0.55;;;;;;;2.24;100.00;96043.50;1024146;28;20294;-69
2023/01/11 02:05:56;;;;;;;1.85;0.82;;;;;;;2.23;100.00;96046.31;1023969;28;20735;-67
2023/01/11 02:06:26;;;;;;;2.05;0.52;;;;;;;2.21;100.00;96040.53;1022598;28;20027;-70
2023/01/11 02:07:05;;;;;;;1.23;0.75;;;;;;;2.23;100.00;96047.09;1022536;29;20693;-71
2023/01/11 02:07:37;;;;;;;0.52;0.52;;;;;;;2.28;100.00;96047.28;1028060;28;20638;-69
2023/01/11 02:08:11;;;;;;;2.42;0.70;;;;;;;2.22;100.00;96029.97;1027841;28;20257;-74
2023/01/11 02:08:43;;;;;;;1.80;0.57;;;;;;;2.28;100.00;96044.72;1026149;28;20266;-68
2023/01/11 02:09:51;;;;;;;1.95;0.52;;;;;;;2.30;100.00;96041.91;1024877;28;20265;-71
2023/01/11 02:10:21;;;;;;;1.95;1.02;;;;;;;2.28;100.00;96036.13;1025635;28;20262;-69
2023/01/11 02:10:53;;;;;;;0.38;0.30;;;;;;;2.29;100.00;96043.69;1024935;28;20283;-73
2023/01/11 02:11:29;;;;;;;1.42;0.70;;;;;;;2.30;100.00;96036.72;1030011;28;20049;-70
2023/01/11 02:12:00;;;;;;;1.15;0.60;;;;;;;2.28;100.00;96036.13;1022189;29;21005;-71
2023/01/11 02:12:32;;;;;;;3.38;0.80;;;;;;;2.26;100.00;96035.53;1025810;28;20336;-72
2023/01/11 02:13:04;;;;;;;0.77;0.63;;;;;;;2.32;100.00;96039.91;1022473;29;20118;-73
2023/01/11 02:13:44;;;;;;;2.58;0.70;;;;;;;2.34;100.00;96037.91;1026620;28;20299;-73
2023/01/11 02:14:16;;;;;;;1.85;0.75;;;;;;;2.32;100.00;96035.53;1029528;28;20277;-71
2023/01/11 02:14:46;;;;;;;2.33;0.70;;;;;;;2.36;100.00;96041.09;1018719;29;20038;-73
2023/01/11 02:15:18;;;;;;;1.88;0.60;;;;;;;2.31;100.00;96022.78;1022786;29;20845;-69
2023/01/11 02:16:06;;;;;;;0.68;0.60;;;;;;;2.41;100.00;96036.09;1022289;28;20031;-73
2023/01/11 02:16:37;;;;;;;0.75;0.43;;;;;;;2.42;100.00;96024.75;1027941;28;20267;-72
2023/01/11 02:17:08;;;;;;;0.82;0.45;;;;;;;2.41;100.00;96033.50;1027609;28;20953;-69
2023/01/11 02:17:38;;;;;;;1.73;0.50;;;;;;;2.42;100.00;96023.97;1020589;28;20059;-69
2023/01/11 02:18:10;;;;;;;0.63;0.40;;;;;;;2.46;100.00;96022.53;1022523;29;20381;-69
2023/01/11 02:18:41;;;;;;;0.52;0.47;;;;;;;2.47;100.00;96024.13;1022742;28;20739;-70
2023/01/11 02:19:53;;;;;;;0.60;0.40;;;;;;;2.48;100.00;96023.13;1023021;28;20270;-69
2023/01/11 02:20:29;;;;;;;0.50;0.40;;;;;;;2.49;100.00;96022.16;1029812;28;20034;-70
2023/01/11 02:21:19;;;;;;;0.80;0.50;;;;;;;2.51;100.00;96015.75;1037330;28;20279;-70
2023/01/11 02:21:49;;;;;;;0.70;0.50;;;;;;;2.51;100.00;96023.50;1042798;28;20260;-71
2023/01/11 02:22:47;;;;;;;3.20;0.88;;;;;;;2.51;100.00;96007.97;1043311;28;20600;-68
2023/01/11 02:23:55;;;;;;;0.50;0.50;;;;;;;2.52;100.00;96009.56;1034186;28;20017;-72
2023/01/11 02:24:53;;;;;;;3.92;0.60;;;;;;;2.55;100.00;96014.34;1034850;28;20851;-69
2023/01/11 02:25:45;;;;;;;0.70;0.60;;;;;;;2.57;100.00;96012.34;1038662;28;20256;-69
2023/01/11 02:26:34;;;;;;;4.72;0.77;;;;;;;2.60;100.00;96005.94;1037096;28;20268;-69
2023/01/11 02:27:22;;;;;;;2.50;0.43;;;;;;;2.59;100.00;96010.34;1039232;28;20961;-68
2023/01/11 02:28:15;;;;;;;1.23;0.57;;;;;;;2.61;100.00;96010.13;1035464;28;20319;-68
2023/01/11 02:29:07;;;;;;;0.95;0.43;;;;;;;2.62;100.00;96003.19;1031358;28;20849;-70
2023/01/11 02:29:42;;;;;;;0.60;0.40;;;;;;;2.63;100.00;96002.97;1020391;28;20742;-70
2023/01/11 02:30:31;;;;;;;4.60;0.60;;;;;;;2.65;100.00;96005.31;1022856;29;20293;-72
2023/01/11 02:31:23;;;;;;;1.73;0.45;;;;;;;2.67;100.00;96000.75;1024311;28;20861;-68
2023/01/11 02:32:17;;;;;;;1.70;0.50;;;;;;;2.66;100.00;96001.75;1032038;28;20265;-68
2023/01/11 02:32:50;;;;;;;0.40;0.38;;;;;;;2.65;100.00;96000.16;1031109;28;20273;-70
2023/01/11 02:33:22;;;;;;;1.17;0.50;;;;;;;2.66;100.00;95994.78;1022783;28;20871;-70
2023/01/11 02:34:11;;;;;;;2.60;0.45;;;;;;;2.66;100.00;95999.16;1030757;28;20288;-67
2023/01/11 02:34:49;;;;;;;0.50;0.40;;;;;;;2.67;100.00;95992.97;1025997;28;20258;-68
2023/01/11 02:35:43;;;;;;;0.70;0.40;;;;;;;2.62;100.00;95987.63;1024285;28;20353;-69
2023/01/11 02:36:47;;;;;;;0.50;0.50;;;;;;;2.69;100.00;95998.75;1018860;29;20919;-69
2023/01/11 02:37:23;;;;;;;4.20;0.60;;;;;;;2.71;100.00;95996.75;1034076;28;20705;-70
2023/01/11 02:37:56;;;;;;;1.23;0.50;;;;;;;2.75;100.00;95992.72;1031312;28;20702;-70
2023/01/11 02:38:32;;;;;;;1.00;0.47;;;;;;;2.75;100.00;95992.72;1031227;28;20831;-70
2023/01/11 02:39:14;;;;;;;1.77;0.50;;;;;;;2.77;100.00;95990.72;1024948;28;20321;-68
2023/01/11 02:40:06;;;;;;;0.40;0.40;;;;;;;2.80;100.00;95985.94;1029874;28;20266;-70
2023/01/11 02:40:52;;;;;;;0.75;0.40;;;;;;;2.80;100.00;95979.97;1031930;28;20270;-68
2023/01/11 02:45:29;;;;;;;1.73;0.40;;;;;;;3.04;100.00;95979.22;1031011;28;20308;-68
2023/01/11 02:46:17;;;;;;;0.93;0.40;;;;;;;3.06;100.00;95979.03;1033647;28;20268;-68
2023/01/11 02:46:52;;;;;;;0.35;0.30;;;;;;;3.12;100.00;95977.38;1035242;28;20273;-69
2023/01/11 02:47:38;;;;;;;0.63;0.40;;;;;;;3.09;100.00;95980.41;1026191;28;20312;-68
2023/01/11 02:48:20;;;;;;;1.33;0.20;;;;;;;3.11;100.00;95978.38;1023242;29;20282;-68
2023/01/11 02:48:58;;;;;;;1.17;0.30;;;;;;;3.14;100.00;95976.16;1020976;29;20361;-68
2023/01/11 02:49:35;;;;;;;0.68;0.40;;;;;;;3.14;100.00;95977.97;1027305;28;20265;-68
2023/01/11 02:50:19;;;;;;;0.85;0.43;;;;;;;3.14;100.00;95972.78;1023050;29;20341;-68
2023/01/11 02:51:05;;;;;;;0.98;0.50;;;;;;;3.16;100.00;95974.16;1023128;29;20290;-69
2023/01/11 02:51:54;;;;;;;0.45;0.30;;;;;;;3.22;100.00;95972.50;1022583;29;20262;-72
2023/01/11 02:52:49;;;;;;;0.77;0.40;;;;;;;3.22;100.00;95972.50;1028555;28;20297;-69